sensor_id;sensor_type;location;lat;lon;timestamp;pressure;altitude;pressure_sealevel;temperature;humidity
49104;BME280;34915;52.926;11.116;2023-07-28T00:01:32;99974.75;;;18.39;79.90
49104;BME280;34915;52.926;11.116;2023-07-28T00:03:58;99981.66;;;18.34;81.03
49104;BME280;34915;52.926;11.116;2023-07-28T00:06:26;99983.97;;;18.36;80.28
49104;BME280;34915;52.926;11.116;2023-07-28T00:08:51;99990.31;;;18.36;80.19
49104;BME280;34915;52.926;11.116;2023-07-28T00:11:17;99994.31;;;18.35;80.49
49104;BME280;34915;52.926;11.116;2023-07-28T00:13:42;99986.50;;;18.43;80.35
49104;BME280;34915;52.926;11.116;2023-07-28T00:16:09;99987.72;;;18.42;80.01
49104;BME280;34915;52.926;11.116;2023-07-28T00:18:35;99987.16;;;18.47;80.36
49104;BME280;34915;52.926;11.116;2023-07-28T00:21:01;99977.91;;;18.62;79.60
49104;BME280;34915;52.926;11.116;2023-07-28T00:23:27;99973.69;;;18.58;79.85
49104;BME280;34915;52.926;11.116;2023-07-28T00:25:53;99980.34;;;18.60;79.25
49104;BME280;34915;52.926;11.116;2023-07-28T00:28:18;99989.72;;;18.54;79.33
49104;BME280;34915;52.926;11.116;2023-07-28T00:30:44;99981.25;;;18.57;79.46
49104;BME280;34915;52.926;11.116;2023-07-28T00:33:09;99977.69;;;18.57;80.08
49104;BME280;34915;52.926;11.116;2023-07-28T00:35:35;99974.47;;;18.58;79.91
49104;BME280;34915;52.926;11.116;2023-07-28T00:38:01;99976.47;;;18.58;79.75
49104;BME280;34915;52.926;11.116;2023-07-28T00:40:26;99981.69;;;18.56;79.69
49104;BME280;34915;52.926;11.116;2023-07-28T00:42:52;99974.00;;;18.60;79.25
49104;BME280;34915;52.926;11.116;2023-07-28T00:45:17;99972.47;;;18.59;79.81
49104;BME280;34915;52.926;11.116;2023-07-28T00:47:45;99969.81;;;18.55;79.85
49104;BME280;34915;52.926;11.116;2023-07-28T00:50:11;99971.03;;;18.54;79.61
49104;BME280;34915;52.926;11.116;2023-07-28T00:52:38;99982.94;;;18.55;79.66
49104;BME280;34915;52.926;11.116;2023-07-28T00:55:06;99973.69;;;18.58;79.35
49104;BME280;34915;52.926;11.116;2023-07-28T00:57:33;99985.06;;;18.51;79.82
49104;BME280;34915;52.926;11.116;2023-07-28T01:00:00;99980.47;;;18.57;79.58
49104;BME280;34915;52.926;11.116;2023-07-28T01:02:26;99978.03;;;18.46;79.53
49104;BME280;34915;52.926;11.116;2023-07-28T01:04:52;99982.38;;;18.47;79.48
49104;BME280;34915;52.926;11.116;2023-07-28T01:10:11;99976.28;;;18.40;80.33
49104;BME280;34915;52.926;11.116;2023-07-28T01:12:38;99980.63;;;18.41;80.26
49104;BME280;34915;52.926;11.116;2023-07-28T01:15:06;99977.84;;;18.41;80.43
49104;BME280;34915;52.926;11.116;2023-07-28T01:17:32;99976.03;;;18.47;79.78
49104;BME280;34915;52.926;11.116;2023-07-28T01:19:57;99960.25;;;18.56;79.58
49104;BME280;34915;52.926;11.116;2023-07-28T01:22:46;99956.50;;;18.50;79.44
49104;BME280;34915;52.926;11.116;2023-07-28T01:25:28;99962.84;;;18.38;79.76
49104;BME280;34915;52.926;11.116;2023-07-28T01:27:58;99963.38;;;18.46;79.11
49104;BME280;34915;52.926;11.116;2023-07-28T01:30:24;99959.50;;;18.43;79.25
49104;BME280;34915;52.926;11.116;2023-07-28T01:32:54;99965.75;;;18.34;79.69
49104;BME280;34915;52.926;11.116;2023-07-28T01:35:20;99954.38;;;18.42;78.90
49104;BME280;34915;52.926;11.116;2023-07-28T01:37:46;99962.19;;;18.34;79.80
49104;BME280;34915;52.926;11.116;2023-07-28T01:40:17;99953.63;;;18.41;78.80
49104;BME280;34915;52.926;11.116;2023-07-28T01:42:43;99964.97;;;18.34;78.76
49104;BME280;34915;52.926;11.116;2023-07-28T01:45:09;99962.53;;;18.36;79.08
49104;BME280;34915;52.926;11.116;2023-07-28T01:47:34;99949.28;;;18.40;78.95
49104;BME280;34915;52.926;11.116;2023-07-28T01:50:00;99957.28;;;18.51;78.07
49104;BME280;34915;52.926;11.116;2023-07-28T01:52:25;99959.59;;;18.52;77.90
49104;BME280;34915;52.926;11.116;2023-07-28T01:54:51;99962.91;;;18.60;77.92
49104;BME280;34915;52.926;11.116;2023-07-28T01:57:17;99961.47;;;18.55;78.42
49104;BME280;34915;52.926;11.116;2023-07-28T01:59:42;99956.81;;;18.52;78.59
49104;BME280;34915;52.926;11.116;2023-07-28T02:02:08;99960.28;;;18.44;79.04
49104;BME280;34915;52.926;11.116;2023-07-28T02:04:33;99960.56;;;18.58;78.91
49104;BME280;34915;52.926;11.116;2023-07-28T02:06:59;99967.81;;;18.56;78.88
49104;BME280;34915;52.926;11.116;2023-07-28T02:09:24;99963.69;;;18.48;78.80
49104;BME280;34915;52.926;11.116;2023-07-28T02:11:50;99968.94;;;18.46;78.99
49104;BME280;34915;52.926;11.116;2023-07-28T02:14:15;99961.09;;;17.97;81.08
49104;BME280;34915;52.926;11.116;2023-07-28T02:16:41;99974.31;;;17.93;81.79
49104;BME280;34915;52.926;11.116;2023-07-28T02:19:07;99966.97;;;17.86;82.07
49104;BME280;34915;52.926;11.116;2023-07-28T02:21:33;99966.63;;;17.84;82.14
49104;BME280;34915;52.926;11.116;2023-07-28T02:23:59;99961.41;;;17.86;82.29
49104;BME280;34915;52.926;11.116;2023-07-28T02:26:25;99951.53;;;17.85;81.73
49104;BME280;34915;52.926;11.116;2023-07-28T02:28:51;99954.88;;;17.93;82.21
49104;BME280;34915;52.926;11.116;2023-07-28T02:31:16;99955.63;;;18.06;81.51
49104;BME280;34915;52.926;11.116;2023-07-28T02:33:42;99953.63;;;18.07;81.09
49104;BME280;34915;52.926;11.116;2023-07-28T02:36:07;99953.75;;;18.03;81.29
49104;BME280;34915;52.926;11.116;2023-07-28T02:38:33;99952.72;;;18.10;81.64
49104;BME280;34915;52.926;11.116;2023-07-28T02:40:59;99958.94;;;18.14;81.22
49104;BME280;34915;52.926;11.116;2023-07-28T02:43:24;99968.81;;;18.15;81.42
49104;BME280;34915;52.926;11.116;2023-07-28T02:45:57;99974.25;;;18.18;80.98
49104;BME280;34915;52.926;11.116;2023-07-28T02:48:23;99978.16;;;18.08;81.37
49104;BME280;34915;52.926;11.116;2023-07-28T02:50:50;99972.81;;;18.14;80.64
49104;BME280;34915;52.926;11.116;2023-07-28T02:53:16;99982.81;;;18.11;81.56
49104;BME280;34915;52.926;11.116;2023-07-28T02:55:43;99977.28;;;18.11;81.06
49104;BME280;34915;52.926;11.116;2023-07-28T02:58:09;99979.72;;;18.09;81.17
49104;BME280;34915;52.926;11.116;2023-07-28T03:00:39;99975.59;;;18.14;80.60
49104;BME280;34915;52.926;11.116;2023-07-28T03:03:06;99984.13;;;18.19;80.79
49104;BME280;34915;52.926;11.116;2023-07-28T03:05:32;99981.56;;;18.25;80.94
49104;BME280;34915;52.926;11.116;2023-07-28T03:07:58;99977.22;;;18.24;80.39
49104;BME280;34915;52.926;11.116;2023-07-28T03:10:24;99978.00;;;18.24;80.56
49104;BME280;34915;52.926;11.116;2023-07-28T03:12:50;99981.31;;;18.32;80.05
49104;BME280;34915;52.926;11.116;2023-07-28T03:15:15;99977.81;;;18.19;80.16
49104;BME280;34915;52.926;11.116;2023-07-28T03:17:41;99975.41;;;18.77;78.56
49104;BME280;34915;52.926;11.116;2023-07-28T03:20:07;99992.00;;;18.90;77.30
49104;BME280;34915;52.926;11.116;2023-07-28T03:22:33;99984.06;;;17.97;81.38
49104;BME280;34915;52.926;11.116;2023-07-28T03:24:58;99982.41;;;17.87;81.98
49104;BME280;34915;52.926;11.116;2023-07-28T03:27:24;99984.53;;;17.83;82.29
49104;BME280;34915;52.926;11.116;2023-07-28T03:29:52;99989.38;;;17.92;82.13
49104;BME280;34915;52.926;11.116;2023-07-28T03:32:17;99995.75;;;17.92;81.86
49104;BME280;34915;52.926;11.116;2023-07-28T03:34:43;100001.31;;;17.92;82.47
49104;BME280;34915;52.926;11.116;2023-07-28T03:37:08;100006.63;;;17.99;81.45
49104;BME280;34915;52.926;11.116;2023-07-28T03:39:34;100013.06;;;17.96;82.09
49104;BME280;34915;52.926;11.116;2023-07-28T03:42:00;100007.97;;;17.95;81.90
49104;BME280;34915;52.926;11.116;2023-07-28T03:44:26;100013.06;;;17.96;81.76
49104;BME280;34915;52.926;11.116;2023-07-28T03:46:51;100007.94;;;18.08;81.90
49104;BME280;34915;52.926;11.116;2023-07-28T03:49:17;100003.06;;;17.99;82.04
49104;BME280;34915;52.926;11.116;2023-07-28T03:51:43;100006.03;;;17.92;82.13
49104;BME280;34915;52.926;11.116;2023-07-28T03:54:08;100012.63;;;17.98;81.83
49104;BME280;34915;52.926;11.116;2023-07-28T03:56:35;100016.84;;;18.02;81.61
49104;BME280;34915;52.926;11.116;2023-07-28T03:59:00;100013.28;;;18.02;81.71
49104;BME280;34915;52.926;11.116;2023-07-28T04:01:26;100012.72;;;17.94;82.08
49104;BME280;34915;52.926;11.116;2023-07-28T04:03:51;100017.28;;;18.01;81.77
49104;BME280;34915;52.926;11.116;2023-07-28T04:06:17;100013.38;;;18.11;81.60
49104;BME280;34915;52.926;11.116;2023-07-28T04:08:42;100020.59;;;18.09;81.48
49104;BME280;34915;52.926;11.116;2023-07-28T04:11:08;100015.19;;;17.92;82.12
49104;BME280;34915;52.926;11.116;2023-07-28T04:13:34;100020.84;;;18.01;81.33
49104;BME280;34915;52.926;11.116;2023-07-28T04:16:00;100024.16;;;18.09;81.40
49104;BME280;34915;52.926;11.116;2023-07-28T04:18:25;100024.50;;;17.98;81.38
49104;BME280;34915;52.926;11.116;2023-07-28T04:20:51;100018.59;;;17.84;82.26
49104;BME280;34915;52.926;11.116;2023-07-28T04:23:17;100031.38;;;17.81;82.63
49104;BME280;34915;52.926;11.116;2023-07-28T04:25:43;100028.69;;;17.90;82.13
49104;BME280;34915;52.926;11.116;2023-07-28T04:28:08;100031.28;;;17.97;82.11
49104;BME280;34915;52.926;11.116;2023-07-28T04:30:34;100030.81;;;17.99;81.81
49104;BME280;34915;52.926;11.116;2023-07-28T04:33:00;100033.50;;;18.02;81.66
49104;BME280;34915;52.926;11.116;2023-07-28T04:35:25;100040.59;;;18.04;81.81
49104;BME280;34915;52.926;11.116;2023-07-28T04:37:51;100029.50;;;18.04;81.92
49104;BME280;34915;52.926;11.116;2023-07-28T04:40:16;100044.47;;;18.06;81.87
49104;BME280;34915;52.926;11.116;2023-07-28T04:42:42;100041.25;;;18.08;81.51
49104;BME280;34915;52.926;11.116;2023-07-28T04:45:08;100036.47;;;18.21;81.15
49104;BME280;34915;52.926;11.116;2023-07-28T04:47:34;100036.88;;;18.32;80.80
49104;BME280;34915;52.926;11.116;2023-07-28T04:49:59;100049.63;;;18.42;80.04
49104;BME280;34915;52.926;11.116;2023-07-28T04:52:25;100052.28;;;18.46;80.28
49104;BME280;34915;52.926;11.116;2023-07-28T04:54:50;100051.78;;;18.25;80.62
49104;BME280;34915;52.926;11.116;2023-07-28T04:57:16;100043.00;;;18.27;81.31
49104;BME280;34915;52.926;11.116;2023-07-28T04:59:43;100047.19;;;18.44;79.98
49104;BME280;34915;52.926;11.116;2023-07-28T05:02:09;100043.16;;;18.45;80.22
49104;BME280;34915;52.926;11.116;2023-07-28T05:04:34;100045.75;;;18.40;80.37
49104;BME280;34915;52.926;11.116;2023-07-28T05:07:02;100045.41;;;18.50;80.37
49104;BME280;34915;52.926;11.116;2023-07-28T05:09:28;100049.38;;;18.49;80.20
49104;BME280;34915;52.926;11.116;2023-07-28T05:11:54;100050.09;;;18.28;80.62
49104;BME280;34915;52.926;11.116;2023-07-28T05:14:20;100058.75;;;18.30;81.31
49104;BME280;34915;52.926;11.116;2023-07-28T05:16:45;100063.41;;;18.46;80.81
49104;BME280;34915;52.926;11.116;2023-07-28T05:19:12;100059.50;;;18.56;80.39
49104;BME280;34915;52.926;11.116;2023-07-28T05:21:40;100064.16;;;18.59;80.24
49104;BME280;34915;52.926;11.116;2023-07-28T05:24:05;100069.72;;;18.46;80.46
49104;BME280;34915;52.926;11.116;2023-07-28T05:26:31;100068.63;;;18.56;80.22
49104;BME280;34915;52.926;11.116;2023-07-28T05:28:59;100084.84;;;18.58;80.00
49104;BME280;34915;52.926;11.116;2023-07-28T05:31:24;100075.06;;;18.41;81.09
49104;BME280;34915;52.926;11.116;2023-07-28T05:33:50;100088.63;;;18.39;80.76
49104;BME280;34915;52.926;11.116;2023-07-28T05:36:15;100080.19;;;18.42;80.98
49104;BME280;34915;52.926;11.116;2023-07-28T05:38:41;100093.09;;;18.36;81.14
49104;BME280;34915;52.926;11.116;2023-07-28T05:41:06;100093.53;;;18.34;81.40
49104;BME280;34915;52.926;11.116;2023-07-28T05:43:33;100097.19;;;18.44;81.23
49104;BME280;34915;52.926;11.116;2023-07-28T05:46:00;100100.88;;;18.54;79.93
49104;BME280;34915;52.926;11.116;2023-07-28T05:48:26;100097.31;;;18.53;80.35
49104;BME280;34915;52.926;11.116;2023-07-28T05:50:51;100106.75;;;18.43;80.23
49104;BME280;34915;52.926;11.116;2023-07-28T05:53:22;100101.22;;;18.30;81.13
49104;BME280;34915;52.926;11.116;2023-07-28T05:55:48;100098.56;;;18.27;81.19
49104;BME280;34915;52.926;11.116;2023-07-28T05:58:14;100100.31;;;18.33;81.17
49104;BME280;34915;52.926;11.116;2023-07-28T06:00:40;100103.75;;;18.38;81.33
49104;BME280;34915;52.926;11.116;2023-07-28T06:03:12;100111.31;;;18.37;81.58
49104;BME280;34915;52.926;11.116;2023-07-28T06:05:40;100113.97;;;18.41;80.93
49104;BME280;34915;52.926;11.116;2023-07-28T06:08:06;100105.09;;;18.33;81.53
49104;BME280;34915;52.926;11.116;2023-07-28T06:10:32;100111.19;;;18.41;80.93
49104;BME280;34915;52.926;11.116;2023-07-28T06:12:58;100114.19;;;18.46;81.02
49104;BME280;34915;52.926;11.116;2023-07-28T06:15:23;100119.22;;;18.51;80.97
49104;BME280;34915;52.926;11.116;2023-07-28T06:17:49;100118.75;;;18.40;80.99
49104;BME280;34915;52.926;11.116;2023-07-28T06:20:15;100121.00;;;18.32;81.41
49104;BME280;34915;52.926;11.116;2023-07-28T06:22:40;100131.66;;;18.34;81.35
49104;BME280;34915;52.926;11.116;2023-07-28T06:25:08;100134.22;;;18.28;81.94
49104;BME280;34915;52.926;11.116;2023-07-28T06:27:34;100127.88;;;18.53;80.57
49104;BME280;34915;52.926;11.116;2023-07-28T06:29:59;100137.31;;;18.69;80.43
49104;BME280;34915;52.926;11.116;2023-07-28T06:32:25;100142.56;;;18.67;80.70
49104;BME280;34915;52.926;11.116;2023-07-28T06:34:53;100139.97;;;18.72;80.57
49104;BME280;34915;52.926;11.116;2023-07-28T06:37:19;100139.75;;;18.79;80.01
49104;BME280;34915;52.926;11.116;2023-07-28T06:39:45;100148.66;;;18.74;80.19
49104;BME280;34915;52.926;11.116;2023-07-28T06:42:11;100138.84;;;18.82;80.41
49104;BME280;34915;52.926;11.116;2023-07-28T06:44:39;100148.72;;;18.83;80.09
49104;BME280;34915;52.926;11.116;2023-07-28T06:47:04;100144.72;;;18.84;79.99
49104;BME280;34915;52.926;11.116;2023-07-28T06:49:30;100148.59;;;18.87;80.13
49104;BME280;34915;52.926;11.116;2023-07-28T06:51:55;100148.38;;;18.94;80.14
49104;BME280;34915;52.926;11.116;2023-07-28T06:54:21;100161.25;;;19.01;80.13
49104;BME280;34915;52.926;11.116;2023-07-28T06:56:46;100160.25;;;18.94;79.78
49104;BME280;34915;52.926;11.116;2023-07-28T06:59:12;100160.31;;;18.82;80.29
49104;BME280;34915;52.926;11.116;2023-07-28T07:01:38;100163.50;;;18.93;80.12
49104;BME280;34915;52.926;11.116;2023-07-28T07:04:03;100169.25;;;18.64;80.47
49104;BME280;34915;52.926;11.116;2023-07-28T07:06:30;100169.31;;;18.48;81.65
49104;BME280;34915;52.926;11.116;2023-07-28T07:08:57;100175.31;;;18.46;82.05
49104;BME280;34915;52.926;11.116;2023-07-28T07:11:22;100177.19;;;18.49;82.10
49104;BME280;34915;52.926;11.116;2023-07-28T07:13:48;100181.00;;;18.55;82.37
49104;BME280;34915;52.926;11.116;2023-07-28T07:16:15;100180.25;;;18.68;82.02
49104;BME280;34915;52.926;11.116;2023-07-28T07:18:42;100180.69;;;18.66;81.66
49104;BME280;34915;52.926;11.116;2023-07-28T07:21:09;100178.22;;;18.68;81.60
49104;BME280;34915;52.926;11.116;2023-07-28T07:23:35;100189.56;;;18.74;82.05
49104;BME280;34915;52.926;11.116;2023-07-28T07:26:01;100192.34;;;18.74;82.08
49104;BME280;34915;52.926;11.116;2023-07-28T07:28:27;100191.53;;;18.86;80.92
49104;BME280;34915;52.926;11.116;2023-07-28T07:30:54;100192.09;;;18.81;81.86
49104;BME280;34915;52.926;11.116;2023-07-28T07:33:20;100191.09;;;18.87;81.68
49104;BME280;34915;52.926;11.116;2023-07-28T07:35:46;100199.56;;;18.84;82.13
49104;BME280;34915;52.926;11.116;2023-07-28T07:38:11;100190.19;;;18.90;81.36
49104;BME280;34915;52.926;11.116;2023-07-28T07:40:37;100190.06;;;18.94;81.18
49104;BME280;34915;52.926;11.116;2023-07-28T07:43:03;100200.78;;;18.83;81.30
49104;BME280;34915;52.926;11.116;2023-07-28T07:45:32;100205.59;;;18.70;80.93
49104;BME280;34915;52.926;11.116;2023-07-28T07:48:00;100215.81;;;18.73;81.33
49104;BME280;34915;52.926;11.116;2023-07-28T07:50:26;100212.38;;;18.69;81.12
49104;BME280;34915;52.926;11.116;2023-07-28T07:52:52;100218.72;;;18.69;81.43
49104;BME280;34915;52.926;11.116;2023-07-28T07:55:17;100212.59;;;18.61;81.51
49104;BME280;34915;52.926;11.116;2023-07-28T07:57:43;100215.38;;;18.61;82.09
49104;BME280;34915;52.926;11.116;2023-07-28T08:00:09;100218.38;;;18.67;81.67
49104;BME280;34915;52.926;11.116;2023-07-28T08:02:36;100216.13;;;18.75;82.10
49104;BME280;34915;52.926;11.116;2023-07-28T08:05:01;100220.16;;;18.74;82.11
49104;BME280;34915;52.926;11.116;2023-07-28T08:07:28;100227.81;;;18.82;81.66
49104;BME280;34915;52.926;11.116;2023-07-28T08:09:53;100231.38;;;18.83;82.37
49104;BME280;34915;52.926;11.116;2023-07-28T08:12:19;100223.03;;;18.83;81.49
49104;BME280;34915;52.926;11.116;2023-07-28T08:14:45;100229.34;;;18.83;81.77
49104;BME280;34915;52.926;11.116;2023-07-28T08:17:11;100232.25;;;18.92;81.90
49104;BME280;34915;52.926;11.116;2023-07-28T08:19:37;100235.56;;;19.00;81.86
49104;BME280;34915;52.926;11.116;2023-07-28T08:22:03;100232.78;;;19.00;81.02
49104;BME280;34915;52.926;11.116;2023-07-28T08:24:29;100237.78;;;19.05;80.66
49104;BME280;34915;52.926;11.116;2023-07-28T08:26:55;100250.44;;;19.06;81.78
49104;BME280;34915;52.926;11.116;2023-07-28T08:29:20;100246.03;;;18.96;80.47
49104;BME280;34915;52.926;11.116;2023-07-28T08:31:46;100241.69;;;18.95;80.21
49104;BME280;34915;52.926;11.116;2023-07-28T08:34:12;100256.28;;;18.86;80.50
49104;BME280;34915;52.926;11.116;2023-07-28T08:36:38;100253.25;;;18.93;81.40
49104;BME280;34915;52.926;11.116;2023-07-28T08:39:07;100250.81;;;18.95;81.38
49104;BME280;34915;52.926;11.116;2023-07-28T08:41:35;100255.91;;;18.97;81.35
49104;BME280;34915;52.926;11.116;2023-07-28T08:44:01;100253.69;;;19.05;81.60
49104;BME280;34915;52.926;11.116;2023-07-28T08:46:27;100254.38;;;19.09;81.50
49104;BME280;34915;52.926;11.116;2023-07-28T08:48:53;100262.59;;;19.12;81.47
49104;BME280;34915;52.926;11.116;2023-07-28T08:51:18;100263.59;;;19.18;81.40
49104;BME280;34915;52.926;11.116;2023-07-28T08:53:44;100270.03;;;19.15;82.05
49104;BME280;34915;52.926;11.116;2023-07-28T08:56:09;100268.25;;;19.21;81.19
49104;BME280;34915;52.926;11.116;2023-07-28T08:58:35;100272.81;;;19.15;81.72
49104;BME280;34915;52.926;11.116;2023-07-28T09:01:01;100270.25;;;19.21;81.79
49104;BME280;34915;52.926;11.116;2023-07-28T09:03:28;100271.03;;;19.21;80.91
49104;BME280;34915;52.926;11.116;2023-07-28T09:06:03;100270.91;;;19.25;80.52
49104;BME280;34915;52.926;11.116;2023-07-28T09:08:32;100276.81;;;19.27;80.15
49104;BME280;34915;52.926;11.116;2023-07-28T09:11:02;100276.03;;;19.26;80.07
49104;BME280;34915;52.926;11.116;2023-07-28T09:13:35;100285.34;;;19.33;80.39
49104;BME280;34915;52.926;11.116;2023-07-28T09:16:01;100282.69;;;19.29;78.91
49104;BME280;34915;52.926;11.116;2023-07-28T09:18:26;100293.38;;;19.31;79.28
49104;BME280;34915;52.926;11.116;2023-07-28T09:20:55;100291.81;;;19.30;78.60
49104;BME280;34915;52.926;11.116;2023-07-28T09:23:28;100283.88;;;19.41;77.99
49104;BME280;34915;52.926;11.116;2023-07-28T09:26:01;100295.22;;;19.46;78.90
49104;BME280;34915;52.926;11.116;2023-07-28T09:28:38;100288.88;;;19.46;78.92
49104;BME280;34915;52.926;11.116;2023-07-28T09:31:04;100292.63;;;19.52;77.79
49104;BME280;34915;52.926;11.116;2023-07-28T09:33:32;100293.88;;;19.51;77.75
49104;BME280;34915;52.926;11.116;2023-07-28T09:36:07;100291.88;;;19.51;77.14
49104;BME280;34915;52.926;11.116;2023-07-28T09:38:36;100298.13;;;19.55;77.63
49104;BME280;34915;52.926;11.116;2023-07-28T09:41:04;100300.78;;;19.59;77.76
49104;BME280;34915;52.926;11.116;2023-07-28T09:43:33;100302.56;;;19.66;77.01
49104;BME280;34915;52.926;11.116;2023-07-28T09:45:59;100305.78;;;19.64;77.37
49104;BME280;34915;52.926;11.116;2023-07-28T09:48:29;100306.00;;;19.70;77.48
49104;BME280;34915;52.926;11.116;2023-07-28T09:50:56;100301.03;;;19.86;76.56
49104;BME280;34915;52.926;11.116;2023-07-28T09:53:27;100304.19;;;19.98;75.59
49104;BME280;34915;52.926;11.116;2023-07-28T09:55:54;100302.31;;;19.95;75.50
49104;BME280;34915;52.926;11.116;2023-07-28T09:58:23;100305.88;;;19.95;75.92
49104;BME280;34915;52.926;11.116;2023-07-28T10:00:50;100303.09;;;19.95;75.03
49104;BME280;34915;52.926;11.116;2023-07-28T10:03:16;100311.25;;;19.89;75.94
49104;BME280;34915;52.926;11.116;2023-07-28T10:05:43;100313.78;;;19.75;77.60
49104;BME280;34915;52.926;11.116;2023-07-28T10:08:10;100323.25;;;19.52;78.24
49104;BME280;34915;52.926;11.116;2023-07-28T10:10:36;100325.09;;;19.33;78.62
49104;BME280;34915;52.926;11.116;2023-07-28T10:13:03;100332.88;;;19.25;79.82
49104;BME280;34915;52.926;11.116;2023-07-28T10:15:31;100329.53;;;19.31;80.02
49104;BME280;34915;52.926;11.116;2023-07-28T10:18:00;100339.78;;;19.21;80.16
49104;BME280;34915;52.926;11.116;2023-07-28T10:20:31;100341.81;;;19.20;80.71
49104;BME280;34915;52.926;11.116;2023-07-28T10:23:14;100352.94;;;19.20;79.62
49104;BME280;34915;52.926;11.116;2023-07-28T10:25:44;100348.25;;;19.05;79.71
49104;BME280;34915;52.926;11.116;2023-07-28T10:28:33;100350.13;;;18.95;79.86
49104;BME280;34915;52.926;11.116;2023-07-28T10:31:02;100353.25;;;18.84;80.46
49104;BME280;34915;52.926;11.116;2023-07-28T10:39:15;100345.56;;;19.01;80.81
49104;BME280;34915;52.926;11.116;2023-07-28T10:44:29;100351.47;;;19.03;81.18
49104;BME280;34915;52.926;11.116;2023-07-28T10:46:55;100356.25;;;19.03;81.47
49104;BME280;34915;52.926;11.116;2023-07-28T10:49:24;100359.16;;;19.24;81.25
49104;BME280;34915;52.926;11.116;2023-07-28T10:51:51;100356.47;;;19.34;82.17
49104;BME280;34915;52.926;11.116;2023-07-28T10:54:16;100360.03;;;19.34;81.17
49104;BME280;34915;52.926;11.116;2023-07-28T10:56:46;100355.78;;;19.55;81.38
49104;BME280;34915;52.926;11.116;2023-07-28T10:59:12;100358.13;;;19.56;80.86
49104;BME280;34915;52.926;11.116;2023-07-28T11:01:39;100355.56;;;19.62;80.76
49104;BME280;34915;52.926;11.116;2023-07-28T11:06:36;100342.97;;;19.45;80.83
49104;BME280;34915;52.926;11.116;2023-07-28T11:09:06;100347.78;;;19.44;80.99
49104;BME280;34915;52.926;11.116;2023-07-28T11:11:32;100349.31;;;19.45;81.34
49104;BME280;34915;52.926;11.116;2023-07-28T11:13:58;100357.78;;;19.54;81.42
49104;BME280;34915;52.926;11.116;2023-07-28T11:16:24;100355.88;;;19.64;81.04
49104;BME280;34915;52.926;11.116;2023-07-28T11:18:49;100351.91;;;19.52;81.15
49104;BME280;34915;52.926;11.116;2023-07-28T11:21:17;100358.56;;;19.55;81.06
49104;BME280;34915;52.926;11.116;2023-07-28T11:23:46;100362.59;;;19.54;80.53
49104;BME280;34915;52.926;11.116;2023-07-28T11:26:13;100358.47;;;19.58;81.37
49104;BME280;34915;52.926;11.116;2023-07-28T11:28:38;100364.03;;;19.58;80.63
49104;BME280;34915;52.926;11.116;2023-07-28T11:31:05;100364.69;;;19.63;81.43
49104;BME280;34915;52.926;11.116;2023-07-28T11:33:31;100377.03;;;19.62;80.92
49104;BME280;34915;52.926;11.116;2023-07-28T11:35:56;100379.81;;;19.49;81.37
49104;BME280;34915;52.926;11.116;2023-07-28T11:38:22;100392.19;;;19.48;81.14
49104;BME280;34915;52.926;11.116;2023-07-28T11:40:49;100385.75;;;19.38;81.29
49104;BME280;34915;52.926;11.116;2023-07-28T11:43:16;100385.38;;;19.49;81.85
49104;BME280;34915;52.926;11.116;2023-07-28T11:45:42;100385.63;;;19.67;81.89
49104;BME280;34915;52.926;11.116;2023-07-28T11:48:08;100401.00;;;19.72;82.02
49104;BME280;34915;52.926;11.116;2023-07-28T11:50:38;100392.06;;;19.77;81.88
49104;BME280;34915;52.926;11.116;2023-07-28T11:53:05;100389.72;;;19.75;81.31
49104;BME280;34915;52.926;11.116;2023-07-28T11:55:33;100388.25;;;19.83;81.40
49104;BME280;34915;52.926;11.116;2023-07-28T11:58:00;100398.38;;;19.90;81.21
49104;BME280;34915;52.926;11.116;2023-07-28T12:00:30;100398.28;;;19.81;81.07
49104;BME280;34915;52.926;11.116;2023-07-28T12:03:12;100409.31;;;19.84;81.10
49104;BME280;34915;52.926;11.116;2023-07-28T12:05:39;100416.03;;;19.74;81.19
49104;BME280;34915;52.926;11.116;2023-07-28T12:08:05;100408.56;;;19.71;80.73
49104;BME280;34915;52.926;11.116;2023-07-28T12:10:33;100422.47;;;19.71;80.89
49104;BME280;34915;52.926;11.116;2023-07-28T12:13:08;100416.03;;;19.74;80.88
49104;BME280;34915;52.926;11.116;2023-07-28T12:15:40;100411.66;;;19.86;81.58
49104;BME280;34915;52.926;11.116;2023-07-28T12:20:44;100432.50;;;19.56;80.81
49104;BME280;34915;52.926;11.116;2023-07-28T12:23:17;100424.59;;;19.42;80.86
49104;BME280;34915;52.926;11.116;2023-07-28T12:25:44;100436.19;;;19.53;80.85
49104;BME280;34915;52.926;11.116;2023-07-28T12:28:10;100430.16;;;19.42;80.66
49104;BME280;34915;52.926;11.116;2023-07-28T12:30:37;100441.16;;;19.45;81.26
49104;BME280;34915;52.926;11.116;2023-07-28T12:33:05;100439.16;;;19.46;81.26
49104;BME280;34915;52.926;11.116;2023-07-28T12:35:32;100434.72;;;19.61;80.35
49104;BME280;34915;52.926;11.116;2023-07-28T12:38:04;100444.53;;;19.78;80.89
49104;BME280;34915;52.926;11.116;2023-07-28T12:40:30;100441.19;;;19.71;80.49
49104;BME280;34915;52.926;11.116;2023-07-28T12:42:57;100440.84;;;19.56;80.45
49104;BME280;34915;52.926;11.116;2023-07-28T12:45:23;100441.53;;;19.60;80.63
49104;BME280;34915;52.926;11.116;2023-07-28T12:47:52;100443.88;;;19.74;80.30
49104;BME280;34915;52.926;11.116;2023-07-28T12:50:22;100437.72;;;19.79;80.90
49104;BME280;34915;52.926;11.116;2023-07-28T12:52:51;100441.75;;;19.78;80.00
49104;BME280;34915;52.926;11.116;2023-07-28T12:55:17;100441.84;;;19.75;80.52
49104;BME280;34915;52.926;11.116;2023-07-28T12:57:43;100446.88;;;19.67;80.38